Time;durP1;ratioP1;P1;durP2;ratioP2;P2;SDS_P1;SDS_P2;PMS_P1;PMS_P2;Temp;Humidity;BMP_temperature;BMP_pressure;BME280_temperature;BME280_humidity;BME280_pressure;Samples;Min_cycle;Max_cycle;Signal;HPM_P1;HPM_P2
2022/12/26 00:00:47;;;;;;;;;;;;;;;10.93;70.55;100907.47;5014459;28;19932;-73
2022/12/26 00:03:12;;;;;;;;;;;;;;;10.92;70.75;100903.13;5013545;28;19966;-73
2022/12/26 00:05:38;;;;;;;;;;;;;;;10.92;70.79;100915.84;5013053;28;19920;-72
2022/12/26 00:08:03;;;;;;;;;;;;;;;10.91;70.86;100917.72;5013756;28;19920;-74
2022/12/26 00:10:28;;;;;;;;;;;;;;;10.91;70.51;100931.25;5014295;28;19918;-73
2022/12/26 00:12:54;;;;;;;;;;;;;;;10.92;70.72;100938.28;5014271;28;19996;-73
2022/12/26 00:15:19;;;;;;;;;;;;;;;10.91;70.60;100935.78;5013358;28;20331;-73
2022/12/26 00:17:44;;;;;;;;;;;;;;;10.91;70.82;100933.94;4996472;28;19924;-73
2022/12/26 00:20:10;;;;;;;;;;;;;;;10.90;70.65;100937.69;5014139;28;19917;-73
2022/12/26 00:22:35;;;;;;;;;;;;;;;10.91;70.79;100938.50;5012709;28;20321;-73
2022/12/26 00:25:01;;;;;;;;;;;;;;;10.90;70.81;100940.38;5013259;28;20342;-74
2022/12/26 00:27:26;;;;;;;;;;;;;;;10.90;70.65;100945.78;5014097;28;19917;-73
2022/12/26 00:29:51;;;;;;;;;;;;;;;10.90;70.75;100953.09;5013111;28;20337;-73
2022/12/26 00:32:17;;;;;;;;;;;;;;;10.90;70.96;100947.69;5014007;28;19913;-73
2022/12/26 00:34:42;;;;;;;;;;;;;;;10.90;70.68;100963.91;5012596;28;20262;-72
2022/12/26 00:37:07;;;;;;;;;;;;;;;10.90;70.98;100962.00;5013060;28;19971;-73
2022/12/26 00:39:32;;;;;;;;;;;;;;;10.90;70.71;100943.09;5013998;28;20016;-73
2022/12/26 00:41:58;;;;;;;;;;;;;;;10.90;70.76;100947.69;5012783;28;19961;-73
2022/12/26 00:44:23;;;;;;;;;;;;;;;10.90;70.63;100931.47;5012617;28;20273;-73
2022/12/26 00:46:48;;;;;;;;;;;;;;;10.89;70.73;100941.47;4996293;28;19956;-73
2022/12/26 00:49:13;;;;;;;;;;;;;;;10.89;70.85;100943.34;5012249;28;20340;-74
2022/12/26 00:51:39;;;;;;;;;;;;;;;10.89;70.82;100959.56;5013890;28;20281;-73
2022/12/26 00:54:04;;;;;;;;;;;;;;;10.89;70.67;100954.97;5012490;28;19925;-75
2022/12/26 00:56:29;;;;;;;;;;;;;;;10.89;70.81;100952.28;5014095;28;20393;-73
2022/12/26 00:58:55;;;;;;;;;;;;;;;10.90;70.64;100961.19;5012841;28;19917;-73
2022/12/26 01:01:21;;;;;;;;;;;;;;;10.89;70.76;100948.75;5012483;28;20400;-73
2022/12/26 01:03:47;;;;;;;;;;;;;;;10.89;70.67;100944.16;5013504;28;19917;-73
2022/12/26 01:06:13;;;;;;;;;;;;;;;10.89;70.87;100952.28;5013767;28;19918;-73
2022/12/26 01:08:38;;;;;;;;;;;;;;;10.89;70.66;100954.97;5013673;28;19921;-73
2022/12/26 01:11:05;;;;;;;;;;;;;;;10.89;70.90;100973.06;5013668;28;19966;-75
2022/12/26 01:13:30;;;;;;;;;;;;;;;10.89;70.73;100954.97;5013713;28;19921;-73
2022/12/26 01:15:55;;;;;;;;;;;;;;;10.89;70.76;100975.78;4996259;28;19918;-73
2022/12/26 01:18:21;;;;;;;;;;;;;;;10.89;70.83;100973.06;5013058;28;19921;-73
2022/12/26 01:20:46;;;;;;;;;;;;;;;10.88;70.68;100958.72;4996016;28;19933;-73
2022/12/26 01:23:11;;;;;;;;;;;;;;;10.89;70.79;100960.38;5012360;28;19917;-73
2022/12/26 01:25:38;;;;;;;;;;;;;;;10.88;70.82;100945.22;5013272;28;20373;-74
2022/12/26 01:28:03;;;;;;;;;;;;;;;10.89;70.76;100962.25;5013275;28;20262;-74
2022/12/26 01:30:28;;;;;;;;;;;;;;;10.88;70.74;100961.41;5013937;28;19917;-74
2022/12/26 01:32:54;;;;;;;;;;;;;;;10.88;70.84;100966.81;5012272;28;19917;-73
2022/12/26 01:35:19;;;;;;;;;;;;;;;10.88;70.79;100956.00;5013962;28;19919;-73
2022/12/26 01:37:44;;;;;;;;;;;;;;;10.88;70.70;100955.19;5017055;28;19919;-73
2022/12/26 01:40:11;;;;;;;;;;;;;;;10.88;70.76;100955.19;5016870;28;20353;-73
2022/12/26 01:42:37;;;;;;;;;;;;;;;10.88;70.81;100960.59;5016743;28;19913;-73
2022/12/26 01:45:05;;;;;;;;;;;;;;;10.88;70.89;100960.59;5015883;28;19963;-73
2022/12/26 01:47:40;;;;;;;;;;;;;;;10.87;71.02;100961.69;5015519;28;20011;-73
2022/12/26 01:50:16;;;;;;;;;;;;;;;10.87;70.78;100959.78;5016731;28;19921;-75
2022/12/26 01:52:44;;;;;;;;;;;;;;;10.87;70.88;100961.69;5015512;28;20020;-73
2022/12/26 01:55:12;;;;;;;;;;;;;;;10.87;70.88;100964.38;5016459;28;20004;-75
2022/12/26 01:57:41;;;;;;;;;;;;;;;10.87;70.76;100954.38;5015428;28;20361;-73
2022/12/26 02:00:07;;;;;;;;;;;;;;;10.87;70.84;100950.88;5015586;28;20254;-73
2022/12/26 02:05:32;;;;;;;;;;;;;;;10.87;70.86;100956.28;5016398;28;20408;-73
2022/12/26 02:05:34;;;;;;;;;;;;;;;10.87;70.92;100967.09;5016597;28;20330;-73
2022/12/26 02:08:17;;;;;;;;;;;;;;;10.86;70.87;100977.06;5015771;28;19914;-73
2022/12/26 02:10:47;;;;;;;;;;;;;;;10.86;70.85;100970.81;5016711;28;19913;-73
2022/12/26 02:13:12;;;;;;;;;;;;;;;10.86;70.83;100965.41;5015844;28;19952;-74
2022/12/26 02:15:38;;;;;;;;;;;;;;;10.86;70.86;100965.41;5014973;28;19953;-73
2022/12/26 02:18:03;;;;;;;;;;;;;;;10.86;70.76;100968.13;4998931;28;19918;-73
2022/12/26 02:20:35;;;;;;;;;;;;;;;10.87;70.78;100972.50;5016482;28;20353;-73
2022/12/26 02:23:15;;;;;;;;;;;;;;;10.86;71.02;100955.47;5014692;28;19915;-74
2022/12/26 02:25:40;;;;;;;;;;;;;;;10.87;70.80;100969.78;5016182;28;19956;-74
2022/12/26 02:28:18;;;;;;;;;;;;;;;10.86;70.87;100968.97;5014999;28;20285;-73
2022/12/26 02:30:49;;;;;;;;;;;;;;;10.84;71.02;100973.78;5016020;28;19917;-73
2022/12/26 02:33:33;;;;;;;;;;;;;;;10.85;70.87;100975.41;5016324;28;19913;-75
2022/12/26 02:36:24;;;;;;;;;;;;;;;10.85;70.94;100974.59;5015825;28;19920;-73
2022/12/26 02:38:57;;;;;;;;;;;;;;;10.85;70.78;100974.59;5011439;28;19967;-74
2022/12/26 02:41:29;;;;;;;;;;;;;;;10.85;70.71;100988.13;5015797;28;20436;-74
2022/12/26 02:47:16;;;;;;;;;;;;;;;10.83;71.09;100983.78;5016010;28;20372;-74
2022/12/26 03:15:21;;;;;;;;;;;;;;;10.80;71.00;100986.13;5015046;28;20328;-75
2022/12/26 03:17:52;;;;;;;;;;;;;;;10.80;71.11;100994.22;5014884;28;20376;-74
2022/12/26 03:20:24;;;;;;;;;;;;;;;10.80;70.98;100989.63;5015620;28;19932;-75
2022/12/26 03:22:53;;;;;;;;;;;;;;;10.81;71.06;100985.09;5013809;28;19913;-74
2022/12/26 03:28:05;;;;;;;;;;;;;;;10.80;71.01;100964.50;5014728;28;19934;-74
2022/12/26 03:30:49;;;;;;;;;;;;;;;10.79;71.01;100952.88;5015134;28;19917;-74
2022/12/26 03:36:06;;;;;;;;;;;;;;;10.79;71.07;100960.16;5015017;28;20021;-74
2022/12/26 03:38:54;;;;;;;;;;;;;;;10.79;71.00;100968.28;5013980;28;19948;-76
2022/12/26 04:44:16;;;;;;;;;;;;;;;10.65;71.01;100978.50;5014491;28;19920;-73
2022/12/26 04:46:45;;;;;;;;;;;;;;;10.66;71.23;100973.91;5014121;28;19920;-73
2022/12/26 04:51:56;;;;;;;;;;;;;;;10.65;71.32;100975.00;5014474;28;19920;-73
2022/12/26 04:54:22;;;;;;;;;;;;;;;10.64;71.17;100979.56;5012491;28;19913;-74
2022/12/26 04:56:47;;;;;;;;;;;;;;;10.64;71.06;100976.06;4996567;28;19917;-74
2022/12/26 04:59:13;;;;;;;;;;;;;;;10.64;71.03;100978.75;5012411;28;20289;-74
2022/12/26 05:09:55;;;;;;;;;;;;;;;10.61;70.98;100988.16;5015526;28;19921;-73
2022/12/26 05:12:20;;;;;;;;;;;;;;;10.60;71.17;100998.13;5017772;28;19917;-73
2022/12/26 05:14:45;;;;;;;;;;;;;;;10.61;71.05;100993.56;5016347;28;19941;-73
2022/12/26 05:30:57;;;;;;;;;;;;;;;10.58;71.13;100994.00;5017221;28;19920;-73
2022/12/26 05:36:07;;;;;;;;;;;;;;;10.56;71.20;100988.06;5017301;28;19946;-73
2022/12/26 05:38:33;;;;;;;;;;;;;;;10.57;71.28;100986.97;5016363;28;19918;-73
2022/12/26 05:40:58;;;;;;;;;;;;;;;10.56;70.98;100982.66;5015796;28;19918;-74
2022/12/26 05:43:23;;;;;;;;;;;;;;;10.55;71.02;100975.59;5017162;28;19913;-73
2022/12/26 05:45:49;;;;;;;;;;;;;;;10.55;71.23;100970.19;5016460;28;19918;-73
2022/12/26 05:48:14;;;;;;;;;;;;;;;10.54;70.93;100963.16;5016596;28;19913;-73
2022/12/26 05:50:39;;;;;;;;;;;;;;;10.54;71.09;100965.84;5017024;28;19917;-73
2022/12/26 05:53:04;;;;;;;;;;;;;;;10.53;70.88;100965.03;5015216;28;19917;-74
2022/12/26 05:55:30;;;;;;;;;;;;;;;10.52;70.90;100976.06;5014949;28;19913;-74
2022/12/26 05:57:55;;;;;;;;;;;;;;;10.52;71.03;100966.06;5015516;28;19918;-75
2022/12/26 06:00:20;;;;;;;;;;;;;;;10.52;70.84;100968.78;5016884;28;20345;-74
2022/12/26 06:02:46;;;;;;;;;;;;;;;10.50;70.92;100981.69;5016211;28;20321;-74
2022/12/26 06:05:11;;;;;;;;;;;;;;;10.49;70.97;100971.97;5015343;28;19924;-74
2022/12/26 06:07:36;;;;;;;;;;;;;;;10.48;71.06;100970.34;4998934;28;19979;-74
2022/12/26 06:10:01;;;;;;;;;;;;;;;10.48;70.95;100986.53;5016082;28;19944;-74
2022/12/26 06:12:27;;;;;;;;;;;;;;;10.47;70.85;100984.88;5016676;28;20445;-74
2022/12/26 06:14:52;;;;;;;;;;;;;;;10.47;71.02;100992.16;5016671;28;19928;-74
2022/12/26 06:17:17;;;;;;;;;;;;;;;10.47;71.05;100992.97;5015057;28;20277;-73
2022/12/26 06:19:42;;;;;;;;;;;;;;;10.48;71.22;101004.59;5016486;28;19922;-74
2022/12/26 06:22:08;;;;;;;;;;;;;;;10.46;70.90;101002.16;5015874;28;20373;-74
2022/12/26 06:24:33;;;;;;;;;;;;;;;10.46;71.18;101007.56;5016134;28;19922;-75
2022/12/26 06:26:58;;;;;;;;;;;;;;;10.45;71.06;101008.59;5015257;28;19968;-74
2022/12/26 06:29:24;;;;;;;;;;;;;;;10.45;71.14;101005.06;5016571;28;19918;-74
2022/12/26 06:31:49;;;;;;;;;;;;;;;10.46;70.99;101020.19;5016160;28;20276;-74
2022/12/26 06:34:14;;;;;;;;;;;;;;;10.45;71.01;101021.28;4997926;28;19924;-73
2022/12/26 06:36:39;;;;;;;;;;;;;;;10.44;70.99;101008.84;5016075;28;19932;-74
2022/12/26 06:39:05;;;;;;;;;;;;;;;10.44;70.91;101014.25;5016006;28;20361;-73
2022/12/26 06:41:30;;;;;;;;;;;;;;;10.43;70.96;101012.59;5014576;28;19917;-74
2022/12/26 06:43:55;;;;;;;;;;;;;;;10.43;71.16;101002.59;5015956;28;19964;-73
2022/12/26 06:46:22;;;;;;;;;;;;;;;10.42;71.07;100992.03;5015956;28;19981;-73
2022/12/26 06:48:47;;;;;;;;;;;;;;;10.41;71.14;101004.72;5015511;28;20008;-74
2022/12/26 06:51:17;;;;;;;;;;;;;;;10.41;70.95;101002.03;4998412;28;20031;-74
2022/12/26 06:53:43;;;;;;;;;;;;;;;10.41;71.00;101010.13;5014204;28;19920;-74
2022/12/26 06:56:09;;;;;;;;;;;;;;;10.42;71.04;101005.53;5015476;28;19913;-74
2022/12/26 06:58:34;;;;;;;;;;;;;;;10.40;71.19;101005.78;5015487;28;20357;-74
2022/12/26 07:01:07;;;;;;;;;;;;;;;10.39;71.25;101006.84;5015344;28;19920;-73
2022/12/26 07:03:33;;;;;;;;;;;;;;;10.39;71.15;101009.53;5014403;28;20361;-73
2022/12/26 07:06:02;;;;;;;;;;;;;;;10.38;71.17;101008.72;5014248;28;19910;-74
2022/12/26 07:08:28;;;;;;;;;;;;;;;10.38;70.99;101002.47;5014301;28;20007;-74
2022/12/26 07:10:53;;;;;;;;;;;;;;;10.37;71.02;101009.75;4997531;28;19963;-73
2022/12/26 07:13:18;;;;;;;;;;;;;;;10.37;70.92;101015.16;4997277;28;19967;-74
2022/12/26 07:15:43;;;;;;;;;;;;;;;10.36;71.08;101018.13;4997165;28;19917;-74
2022/12/26 07:18:09;;;;;;;;;;;;;;;10.35;71.02;101008.34;5015590;28;19960;-74
2022/12/26 07:20:34;;;;;;;;;;;;;;;10.35;71.27;101017.28;5015293;28;19917;-74
2022/12/26 07:22:59;;;;;;;;;;;;;;;10.35;71.17;101022.66;4997285;28;19964;-74
2022/12/26 07:25:24;;;;;;;;;;;;;;;10.34;71.04;101022.94;5013810;28;19975;-74
2022/12/26 07:27:53;;;;;;;;;;;;;;;10.34;71.03;101031.84;5013634;28;20396;-74
2022/12/26 07:30:18;;;;;;;;;;;;;;;10.33;71.05;101032.91;5015171;28;20380;-73
2022/12/26 07:32:43;;;;;;;;;;;;;;;10.32;71.09;101031.25;4996485;28;19969;-74
2022/12/26 07:35:09;;;;;;;;;;;;;;;10.31;71.26;101028.81;5014701;28;19946;-74
2022/12/26 07:37:34;;;;;;;;;;;;;;;10.32;71.18;101033.13;5013547;28;19921;-74
2022/12/26 07:39:59;;;;;;;;;;;;;;;10.31;71.08;101035.00;5014608;28;20352;-74
2022/12/26 07:42:24;;;;;;;;;;;;;;;10.31;71.02;101034.19;5014844;28;19913;-73
2022/12/26 07:44:50;;;;;;;;;;;;;;;10.31;71.09;101036.91;5014421;28;19967;-73
2022/12/26 07:47:15;;;;;;;;;;;;;;;10.30;71.01;101035.22;5013387;28;19967;-74
2022/12/26 07:49:40;;;;;;;;;;;;;;;10.28;71.11;101030.09;5014433;28;20349;-73
2022/12/26 07:52:05;;;;;;;;;;;;;;;10.28;71.09;101032.78;5014335;28;20289;-73
2022/12/26 07:54:31;;;;;;;;;;;;;;;10.29;70.99;101033.59;5013257;28;19925;-73
2022/12/26 07:56:56;;;;;;;;;;;;;;;10.28;71.10;101038.19;5014789;28;19974;-73
2022/12/26 07:59:21;;;;;;;;;;;;;;;10.28;71.12;101035.50;5014032;28;20004;-74
2022/12/26 08:01:47;;;;;;;;;;;;;;;10.28;71.10;101040.03;4996499;28;19918;-74
2022/12/26 08:04:12;;;;;;;;;;;;;;;10.28;70.98;101040.88;5014194;28;19920;-74
2022/12/26 08:06:37;;;;;;;;;;;;;;;10.28;70.92;101038.19;4996543;28;19917;-74
2022/12/26 08:09:03;;;;;;;;;;;;;;;10.27;71.15;101028.41;5014107;28;19989;-74
2022/12/26 08:11:30;;;;;;;;;;;;;;;10.28;71.18;101042.75;5013826;28;19921;-73
2022/12/26 08:13:56;;;;;;;;;;;;;;;10.27;71.08;101044.59;5014462;28;19913;-73
2022/12/26 08:16:21;;;;;;;;;;;;;;;10.26;70.89;101037.56;5013959;28;20282;-73
2022/12/26 08:18:46;;;;;;;;;;;;;;;10.27;70.99;101038.38;4996314;28;19925;-75
2022/12/26 08:21:12;;;;;;;;;;;;;;;10.27;71.08;101051.88;5013978;28;19913;-74
2022/12/26 08:23:37;;;;;;;;;;;;;;;10.26;71.11;101059.16;5012843;28;19921;-75
2022/12/26 08:26:03;;;;;;;;;;;;;;;10.26;71.00;101058.34;5012595;28;19920;-74
2022/12/26 08:28:29;;;;;;;;;;;;;;;10.27;71.14;101068.06;5012659;28;19975;-73
2022/12/26 08:30:54;;;;;;;;;;;;;;;10.26;70.94;101067.25;5012722;28;20344;-73
2022/12/26 08:33:19;;;;;;;;;;;;;;;10.26;71.13;101072.66;5012592;28;19921;-74
2022/12/26 08:35:44;;;;;;;;;;;;;;;10.27;71.19;101068.06;5012521;28;19960;-74
2022/12/26 08:38:10;;;;;;;;;;;;;;;10.26;71.13;101069.97;5012587;28;20008;-74
2022/12/26 08:40:35;;;;;;;;;;;;;;;10.26;71.22;101072.66;5012599;28;20332;-73
2022/12/26 08:43:00;;;;;;;;;;;;;;;10.26;71.17;101066.44;5014350;28;19925;-74
2022/12/26 08:45:26;;;;;;;;;;;;;;;10.27;71.10;101076.19;5017955;28;20419;-74
2022/12/26 08:47:52;;;;;;;;;;;;;;;10.26;71.19;101078.06;5016509;28;19918;-74
2022/12/26 08:50:18;;;;;;;;;;;;;;;10.25;71.67;101067.47;5017937;28;20369;-73
2022/12/26 08:52:43;;;;;;;;;;;;;;;10.27;71.34;101073.47;5017162;28;19921;-74
2022/12/26 08:55:08;;;;;;;;;;;;;;;10.26;71.27;101072.66;5018155;28;20011;-74
2022/12/26 08:57:34;;;;;;;;;;;;;;;10.27;71.30;101079.69;4999979;28;20365;-74
2022/12/26 08:59:59;;;;;;;;;;;;;;;10.28;71.20;101077.84;5017537;28;19913;-74
2022/12/26 09:02:24;;;;;;;;;;;;;;;10.27;71.29;101084.28;5016438;28;20326;-74
2022/12/26 09:04:50;;;;;;;;;;;;;;;10.27;71.07;101090.50;5016375;28;19921;-76
2022/12/26 09:07:15;;;;;;;;;;;;;;;10.28;71.05;101102.13;5016423;28;19913;-74
2022/12/26 09:09:40;;;;;;;;;;;;;;;10.28;71.10;101099.44;5016014;28;19924;-74
2022/12/26 09:12:05;;;;;;;;;;;;;;;10.28;71.26;101105.69;5015904;28;19956;-74
2022/12/26 09:14:31;;;;;;;;;;;;;;;10.27;71.26;101098.59;5015880;28;19913;-74
2022/12/26 09:16:56;;;;;;;;;;;;;;;10.28;71.28;101103.00;5017052;28;19921;-73
2022/12/26 09:19:22;;;;;;;;;;;;;;;10.28;71.27;101111.09;5016298;28;19918;-73
2022/12/26 09:21:48;;;;;;;;;;;;;;;10.28;71.28;101110.25;5016299;28;19921;-75
2022/12/26 09:24:14;;;;;;;;;;;;;;;10.27;71.30;101109.41;5016152;28;20310;-74
2022/12/26 09:26:40;;;;;;;;;;;;;;;10.28;71.34;101123.75;5016662;28;19913;-73
2022/12/26 09:29:06;;;;;;;;;;;;;;;10.29;71.32;101125.41;5015844;28;20258;-73
2022/12/26 09:31:32;;;;;;;;;;;;;;;10.29;71.23;101139.72;5015635;28;20334;-74
2022/12/26 09:33:58;;;;;;;;;;;;;;;10.28;71.13;101143.50;5016754;28;19913;-74
2022/12/26 09:36:25;;;;;;;;;;;;;;;10.29;71.29;101141.59;5016059;28;19918;-73
2022/12/26 09:38:50;;;;;;;;;;;;;;;10.29;71.32;101145.13;5016967;28;19917;-74
2022/12/26 09:41:28;;;;;;;;;;;;;;;10.29;71.13;101149.69;5015210;28;19917;-74
2022/12/26 09:44:02;;;;;;;;;;;;;;;10.29;71.35;101145.13;5015564;28;19963;-76
2022/12/26 09:46:33;;;;;;;;;;;;;;;10.29;71.34;101157.81;5016887;28;19953;-75
2022/12/26 09:49:02;;;;;;;;;;;;;;;10.30;71.39;101159.44;5016219;28;19932;-75
2022/12/26 09:51:30;;;;;;;;;;;;;;;10.29;71.42;101172.13;5015167;28;19960;-75
2022/12/26 09:53:55;;;;;;;;;;;;;;;10.32;71.18;101168.13;5015173;28;19925;-77
2022/12/26 09:56:23;;;;;;;;;;;;;;;10.33;71.52;101172.47;5013967;28;19917;-74
2022/12/26 09:58:51;;;;;;;;;;;;;;;10.32;71.13;101171.66;5015091;28;20327;-73
2022/12/26 10:01:19;;;;;;;;;;;;;;;10.33;71.40;101167.06;5016277;28;20362;-73
2022/12/26 10:03:49;;;;;;;;;;;;;;;10.32;71.54;101182.47;5016320;28;19964;-74
2022/12/26 10:06:19;;;;;;;;;;;;;;;10.32;71.60;101185.16;5014893;28;19996;-73
2022/12/26 10:08:50;;;;;;;;;;;;;;;10.34;71.50;101210.06;5014652;28;19921;-73
2022/12/26 10:11:54;;;;;;;;;;;;;;;10.35;71.38;101225.19;5014684;28;19921;-73
2022/12/26 10:14:31;;;;;;;;;;;;;;;10.34;71.55;101247.88;4974776;28;20382;-74
2022/12/26 10:17:03;;;;;;;;;;;;;;;10.35;71.49;101245.97;4974786;28;19953;-75
2022/12/26 10:19:28;;;;;;;;;;;;;;;10.35;71.56;101260.31;4990234;28;20004;-73
2022/12/26 10:22:02;;;;;;;;;;;;;;;10.35;71.50;101257.59;5016053;28;19991;-73
2022/12/26 10:24:29;;;;;;;;;;;;;;;10.36;71.40;101261.97;5015991;28;19953;-75
2022/12/26 10:26:58;;;;;;;;;;;;;;;10.37;71.43;101260.09;5014639;28;19924;-73
2022/12/26 10:29:23;;;;;;;;;;;;;;;10.37;71.40;101266.31;5015904;28;20088;-73
2022/12/26 10:31:53;;;;;;;;;;;;;;;10.37;71.37;101270.88;5015765;28;19914;-73
2022/12/26 10:34:22;;;;;;;;;;;;;;;10.36;71.34;101259.25;5016109;28;19916;-70
2022/12/26 10:37:10;;;;;;;;;;;;;;;10.36;71.50;101267.38;5015808;28;19913;-72
2022/12/26 10:39:44;;;;;;;;;;;;;;;10.36;71.51;101275.47;5010386;28;19913;-71
2022/12/26 10:42:42;;;;;;;;;;;;;;;10.36;71.21;101290.84;5016283;28;19968;-69
2022/12/26 10:45:13;;;;;;;;;;;;;;;10.37;71.33;101316.78;4993405;28;19920;-72
2022/12/26 10:47:40;;;;;;;;;;;;;;;10.38;71.31;101310.31;5015618;28;19913;-72
2022/12/26 10:50:09;;;;;;;;;;;;;;;10.38;71.14;101323.81;5013999;28;19917;-74
2022/12/26 10:52:37;;;;;;;;;;;;;;;10.37;71.07;101330.28;5015590;28;19921;-71
2022/12/26 10:55:03;;;;;;;;;;;;;;;10.36;71.27;101336.75;5014056;28;19913;-72
2022/12/26 10:57:30;;;;;;;;;;;;;;;10.36;71.13;101337.59;5015474;28;19981;-71
2022/12/26 10:59:56;;;;;;;;;;;;;;;10.35;71.14;101325.09;5015041;28;19913;-72
2022/12/26 11:02:22;;;;;;;;;;;;;;;10.35;71.34;101335.91;5015243;28;20384;-72
2022/12/26 11:05:01;;;;;;;;;;;;;;;10.35;71.26;101338.63;5014862;28;19913;-72
2022/12/26 11:07:29;;;;;;;;;;;;;;;10.35;71.19;101344.00;5014407;28;19913;-71
2022/12/26 11:10:00;;;;;;;;;;;;;;;10.34;71.04;101342.38;5015241;28;19925;-72
2022/12/26 11:12:49;;;;;;;;;;;;;;;10.35;71.13;101343.19;5014357;28;20243;-72
2022/12/26 11:15:29;;;;;;;;;;;;;;;10.35;71.21;101349.41;5015596;28;19917;-72
2022/12/26 11:18:05;;;;;;;;;;;;;;;10.36;71.30;101355.66;5013869;28;19917;-71
2022/12/26 11:20:30;;;;;;;;;;;;;;;10.35;71.10;101349.41;5015950;28;19914;-72
2022/12/26 11:23:16;;;;;;;;;;;;;;;10.35;71.10;101354.81;5014968;28;19917;-71
2022/12/26 11:25:46;;;;;;;;;;;;;;;10.35;71.13;101359.41;5014926;28;19917;-71
2022/12/26 11:28:19;;;;;;;;;;;;;;;10.36;71.18;101361.06;5014996;28;19913;-72
2022/12/26 11:30:46;;;;;;;;;;;;;;;10.36;71.10;101361.06;5014685;28;19917;-71
2022/12/26 11:33:21;;;;;;;;;;;;;;;10.36;70.96;101366.47;5014740;28;19967;-70
2022/12/26 11:36:07;;;;;;;;;;;;;;;10.35;70.86;101367.50;5013755;28;20040;-71
2022/12/26 11:38:33;;;;;;;;;;;;;;;10.35;71.09;101362.09;5012578;28;20051;-71
2022/12/26 11:43:43;;;;;;;;;;;;;;;10.33;71.03;101369.59;5015175;28;19920;-71
2022/12/26 11:46:09;;;;;;;;;;;;;;;10.32;70.96;101374.19;5014536;28;20285;-71
2022/12/26 11:48:34;;;;;;;;;;;;;;;10.32;71.23;101394.97;5014770;28;20353;-71
2022/12/26 11:50:59;;;;;;;;;;;;;;;10.33;71.10;101381.25;4997417;28;19922;-71
2022/12/26 11:53:24;;;;;;;;;;;;;;;10.33;71.00;101377.69;5014841;28;19919;-71
2022/12/26 11:56:01;;;;;;;;;;;;;;;10.33;71.03;101380.41;5014042;28;19924;-71
2022/12/26 11:58:30;;;;;;;;;;;;;;;10.32;70.88;101394.97;5014569;28;19960;-71
2022/12/26 12:00:58;;;;;;;;;;;;;;;10.31;70.86;101390.63;5014281;28;19956;-71
2022/12/26 12:03:35;;;;;;;;;;;;;;;10.31;70.97;101386.03;5014107;28;19913;-71
2022/12/26 12:06:19;;;;;;;;;;;;;;;10.31;71.02;101398.72;5014823;28;20344;-71
2022/12/26 12:09:04;;;;;;;;;;;;;;;10.30;70.84;101408.66;5013517;28;19917;-73
2022/12/26 12:11:48;;;;;;;;;;;;;;;10.30;71.14;101405.97;5014753;28;19913;-73
2022/12/26 12:14:20;;;;;;;;;;;;;;;10.29;71.03;101396.22;5014343;28;19920;-71
2022/12/26 12:16:53;;;;;;;;;;;;;;;10.29;70.93;101401.63;5014442;28;19953;-72
2022/12/26 12:19:29;;;;;;;;;;;;;;;10.29;70.93;101417.84;5014073;28;19921;-73
2022/12/26 12:21:55;;;;;;;;;;;;;;;10.29;70.89;101411.63;5014731;28;19964;-73
2022/12/26 12:24:35;;;;;;;;;;;;;;;10.28;70.70;101407.25;5013920;28;19917;-73
2022/12/26 12:27:21;;;;;;;;;;;;;;;10.28;70.86;101421.59;5012972;28;19967;-73
2022/12/26 12:30:05;;;;;;;;;;;;;;;10.27;70.87;101425.28;5014670;28;19920;-73
2022/12/26 12:32:43;;;;;;;;;;;;;;;10.28;70.81;101428.84;5013963;28;19914;-72
2022/12/26 12:35:26;;;;;;;;;;;;;;;10.29;70.91;101438.63;5013945;28;20428;-75
2022/12/26 12:37:51;;;;;;;;;;;;;;;10.28;70.91;101423.44;5014532;28;19914;-73
2022/12/26 12:40:55;;;;;;;;;;;;;;;10.27;70.94;101419.91;5012613;28;20285;-73
2022/12/26 12:43:49;;;;;;;;;;;;;;;10.27;70.72;101430.69;4956388;28;19921;-73
2022/12/26 12:46:26;;;;;;;;;;;;;;;10.27;70.75;101432.56;4938816;28;20076;-72
2022/12/26 12:49:01;;;;;;;;;;;;;;;10.26;70.92;101429.06;5003350;28;19918;-72
2022/12/26 12:51:26;;;;;;;;;;;;;;;10.26;71.03;101439.03;5014399;28;19982;-71
2022/12/26 12:54:26;;;;;;;;;;;;;;;10.26;70.93;101436.34;5013559;28;20433;-72
2022/12/26 12:56:54;;;;;;;;;;;;;;;10.27;70.87;101443.38;4972357;28;19920;-73
2022/12/26 12:59:42;;;;;;;;;;;;;;;10.26;70.73;101430.94;5005666;28;19921;-71
2022/12/26 13:02:26;;;;;;;;;;;;;;;10.25;70.91;101450.88;5014316;28;19914;-72
2022/12/26 13:04:58;;;;;;;;;;;;;;;10.25;71.03;101450.88;5014037;28;19913;-72
2022/12/26 13:07:35;;;;;;;;;;;;;;;10.24;70.66;101457.34;5012354;28;19971;-72
2022/12/26 13:10:05;;;;;;;;;;;;;;;10.23;70.95;101455.66;5014163;28;19913;-72
2022/12/26 13:12:34;;;;;;;;;;;;;;;10.22;70.50;101449.44;5013167;28;20288;-72
2022/12/26 13:15:01;;;;;;;;;;;;;;;10.21;70.49;101444.28;5014112;28;19913;-72
2022/12/26 13:17:36;;;;;;;;;;;;;;;10.21;70.53;101437.00;5013954;28;19960;-71
2022/12/26 13:20:16;;;;;;;;;;;;;;;10.20;70.50;101446.13;5013672;28;20349;-71
2022/12/26 13:25:43;;;;;;;;;;;;;;;10.17;70.52;101452.00;5014025;28;20028;-71
2022/12/26 13:28:13;;;;;;;;;;;;;;;10.16;70.66;101448.47;5013800;28;20390;-72
2022/12/26 13:30:38;;;;;;;;;;;;;;;10.16;70.58;101453.88;5013242;28;19921;-71
2022/12/26 13:33:04;;;;;;;;;;;;;;;10.17;70.60;101462.78;5017142;28;19917;-73
2022/12/26 13:36:05;;;;;;;;;;;;;;;10.15;70.70;101465.72;5016064;28;19925;-72
2022/12/26 13:38:48;;;;;;;;;;;;;;;10.15;70.36;101464.88;4959405;28;20272;-73
2022/12/26 13:44:00;;;;;;;;;;;;;;;10.13;70.60;101469.66;5017281;28;19971;-72
2022/12/26 13:46:35;;;;;;;;;;;;;;;10.11;70.49;101469.91;5015980;28;19913;-73
2022/12/26 13:49:00;;;;;;;;;;;;;;;10.11;70.51;101478.00;5016525;28;19924;-72
2022/12/26 13:51:45;;;;;;;;;;;;;;;10.11;70.76;101490.69;5016653;28;20338;-73
2022/12/26 13:54:12;;;;;;;;;;;;;;;10.10;70.37;101491.72;5016847;28;19995;-72
2022/12/26 13:56:52;;;;;;;;;;;;;;;10.09;70.44;101488.19;5015334;28;19916;-73
2022/12/26 13:59:23;;;;;;;;;;;;;;;10.08;70.26;101499.19;5016651;28;19948;-76
2022/12/26 14:02:07;;;;;;;;;;;;;;;10.08;70.34;101510.00;5015421;28;19920;-73
2022/12/26 14:04:51;;;;;;;;;;;;;;;10.07;70.24;101508.34;5016027;28;20260;-74
2022/12/26 14:07:19;;;;;;;;;;;;;;;10.07;70.42;101511.06;5015843;28;19963;-76
2022/12/26 14:09:48;;;;;;;;;;;;;;;10.05;70.33;101513.13;5015183;28;19917;-71
2022/12/26 14:12:13;;;;;;;;;;;;;;;10.03;70.27;101512.53;5015156;28;19917;-73
2022/12/26 14:14:57;;;;;;;;;;;;;;;10.03;70.22;101512.53;5015243;28;19920;-73
2022/12/26 14:17:32;;;;;;;;;;;;;;;10.02;70.35;101516.28;5016318;28;19968;-71
2022/12/26 14:20:14;;;;;;;;;;;;;;;10.02;70.19;101519.81;5015021;28;19918;-72
2022/12/26 14:22:39;;;;;;;;;;;;;;;10.02;70.14;101522.50;5016734;28;19909;-72
2022/12/26 14:25:08;;;;;;;;;;;;;;;10.01;70.15;101528.97;5015183;28;19921;-73
2022/12/26 14:27:43;;;;;;;;;;;;;;;10.01;70.23;101537.06;5016016;28;19920;-73
2022/12/26 14:30:20;;;;;;;;;;;;;;;10.00;69.90;101538.09;5015084;28;20320;-74
2022/12/26 14:32:54;;;;;;;;;;;;;;;10.00;69.82;101532.69;5016406;28;19917;-73
2022/12/26 14:35:38;;;;;;;;;;;;;;;9.99;69.60;101539.16;5015830;28;19918;-75
2022/12/26 14:38:22;;;;;;;;;;;;;;;9.99;69.60;101547.25;5015150;28;19939;-73
2022/12/26 14:41:02;;;;;;;;;;;;;;;9.97;69.53;101547.44;5015685;28;19913;-73
2022/12/26 14:43:31;;;;;;;;;;;;;;;9.95;69.71;101557.66;5015404;28;20300;-73
2022/12/26 14:45:57;;;;;;;;;;;;;;;9.94;69.57;101561.38;5014148;28;19920;-72
2022/12/26 14:48:22;;;;;;;;;;;;;;;9.94;69.48;101563.28;5015698;28;19913;-73
2022/12/26 14:50:47;;;;;;;;;;;;;;;9.93;69.85;101577.81;5016667;28;19935;-73
2022/12/26 14:53:15;;;;;;;;;;;;;;;9.92;69.55;101578.84;5015903;28;19917;-73
2022/12/26 14:55:48;;;;;;;;;;;;;;;9.90;69.57;101589.03;5015435;28;20429;-72
2022/12/26 14:58:25;;;;;;;;;;;;;;;9.90;69.57;101589.88;5015605;28;19913;-73
2022/12/26 15:00:51;;;;;;;;;;;;;;;9.88;69.58;101602.75;5014239;28;19972;-73
2022/12/26 15:03:28;;;;;;;;;;;;;;;9.88;69.60;101612.72;5014144;28;20297;-72